Latest Weather Observations for Ernabella/Pukatja

IDS60801

Issued at 7:01 pm CST Tuesday 4 August 2015 (issued every 30 minutes, with the page automatically refreshed every 10 minutes)

About weather observations | Map of weather stations | Latest weather observations for SA | Other Formats
Station Details ID: 016097 Name: PUKATJA Lat: -26.26 Lon: 132.18 Height: 703.2 m
Data from the previous 72 hours. | See also: Recent months at Ernabella/Pukatja
Date/Time
CST
Temp
°C
App
Temp
°C
Dew
Point
Rel
Hum
%
Delta-T
°C
Wind Press
QNH
hPa
Press
MSL
hPa
Rain
since 9 am
mm
Dir
 
Spd
km/h
Gust
km/h
Spd
kts
Gust
kts
04/07:00pm 12.3 7.9 0.1 43 5.2 SE 13 20 7 11 1027.9 - 0.0
04/06:30pm 12.7 7.9 0.5 43 5.3 SE 15 20 8 11 1027.5 - 0.0
04/06:00pm 13.3 8.5 0.0 40 5.7 ESE 15 20 8 11 1027.4 1026.5 0.0
04/05:30pm 14.3 9.9 0.2 38 6.2 E 13 19 7 10 1027.2 - 0.0
04/05:00pm 14.5 8.9 0.0 37 6.4 ESE 19 33 10 18 1026.9 - 0.0
04/04:30pm 14.5 9.3 0.4 38 6.2 SE 17 24 9 13 1027.0 - 0.0
04/04:00pm 15.0 10.6 0.4 37 6.5 SSE 13 20 7 11 1027.2 - 0.0
04/03:30pm 14.6 9.8 0.5 38 6.2 ESE 15 24 8 13 1027.5 - 0.0
04/03:00pm 15.3 10.2 0.7 37 6.5 ESE 17 24 9 13 1027.8 1026.9 0.0
04/02:30pm 14.7 9.1 0.9 39 6.2 SSE 20 26 11 14 1028.1 - 0.0
04/02:00pm 14.4 8.9 0.6 39 6.1 ESE 19 30 10 16 1028.2 - 0.0
04/01:30pm 14.1 8.6 0.7 40 5.9 E 19 30 10 16 1028.5 - 0.0
04/01:00pm 13.6 8.1 0.9 42 5.6 ESE 19 26 10 14 1029.0 - 0.0
04/12:30pm 12.4 7.3 0.5 44 5.2 ESE 17 28 9 15 1029.6 - 0.0
04/12:00pm 13.3 8.0 1.9 46 5.1 ESE 19 28 10 15 1030.1 1029.2 0.0
04/11:30am 12.2 6.3 1.5 48 4.7 SE 22 30 12 16 1030.8 - 0.0
04/11:00am 12.0 6.5 1.6 49 4.6 SE 20 30 11 16 1031.1 - 0.0
04/10:30am 11.1 5.6 1.6 52 4.2 E 20 30 11 16 1031.6 - 0.0
04/10:00am 10.8 5.3 1.9 54 3.9 ESE 20 24 11 13 1031.6 - 0.0
04/09:30am 9.8 3.9 1.7 57 3.5 ESE 22 32 12 17 1031.3 - 0.0
04/09:00am 9.7 5.6 2.1 59 3.3 ESE 13 22 7 12 1030.9 1030.0 0.0
04/08:30am 7.8 3.9 1.4 64 2.7 SE 11 17 6 9 1030.9 - 0.0
04/08:00am 6.6 3.1 1.3 69 2.2 SE 9 15 5 8 1030.3 - 0.0
04/07:30am 6.0 2.5 1.2 71 2.0 SE 9 11 5 6 1030.1 - 0.0
04/07:00am 5.3 2.1 0.9 73 1.8 ESE 7 11 4 6 1029.9 - 0.0
04/06:30am 5.5 1.9 0.7 71 2.0 E 9 13 5 7 1029.7 - 0.0
04/06:00am 6.3 2.4 1.4 71 2.0 ESE 11 17 6 9 1029.4 1028.5 0.0
04/05:30am 6.5 2.6 1.0 68 2.3 SE 11 17 6 9 1029.3 - 0.0
04/05:00am 6.7 2.8 1.0 67 2.4 ESE 11 17 6 9 1029.2 - 0.0
04/04:30am 7.0 2.7 1.3 67 2.4 SE 13 17 7 9 1029.3 - 0.0
04/04:00am 7.1 3.2 1.2 66 2.5 SE 11 15 6 8 1029.2 - 0.0
04/03:30am 7.1 2.8 1.2 66 2.5 SE 13 15 7 8 1029.4 - 0.0
04/03:00am 7.5 3.3 1.4 65 2.6 SE 13 17 7 9 1029.4 1028.5 0.0
04/02:30am 7.8 3.6 1.4 64 2.7 SE 13 20 7 11 1029.7 - 0.0
04/02:00am 7.6 3.7 1.2 64 2.7 ESE 11 15 6 8 1029.9 - 0.0
04/01:30am 7.7 4.2 1.1 63 2.8 SE 9 13 5 7 1029.6 - 0.0
04/01:00am 8.4 4.2 1.6 62 2.9 SE 13 17 7 9 1029.5 - 0.0
04/12:30am 8.4 4.2 1.6 62 2.9 SSE 13 20 7 11 1029.7 - 0.0
04/12:00am 9.2 4.7 1.9 60 3.2 SSE 15 22 8 12 1029.8 1028.9 0.0
 
Date/Time
CST
Temp
°C
App
Temp
°C
Dew
Point
Rel
Hum
%
Delta-T
°C
Wind Press
QNH
hPa
Press
MSL
hPa
Rain
since 9 am
mm
Dir
 
Spd
km/h
Gust
km/h
Spd
kts
Gust
kts
03/11:30pm 9.2 4.3 1.9 60 3.2 SSE 17 20 9 11 1030.0 - 0.0
03/11:00pm 9.5 4.6 1.9 59 3.3 SSE 17 24 9 13 1030.0 - 0.0
03/10:30pm 9.7 4.4 2.1 59 3.3 SSE 19 33 10 18 1030.1 - 0.0
03/10:00pm 9.9 5.0 2.0 58 3.5 SSE 17 20 9 11 1030.1 - 0.0
03/09:30pm 10.3 6.1 1.9 56 3.7 SE 13 22 7 12 1029.9 - 0.0
03/09:00pm 10.4 6.6 1.8 55 3.7 SSE 11 15 6 8 1029.9 1029.0 0.0
03/08:30pm 11.0 6.4 1.8 53 4.1 SSE 15 20 8 11 1029.7 - 0.0
03/08:00pm 11.4 6.4 1.6 51 4.3 S 17 22 9 12 1029.5 - 0.0
03/07:30pm 11.6 6.6 1.5 50 4.5 S 17 20 9 11 1029.3 - 0.0
03/07:00pm 11.9 7.6 1.3 48 4.7 S 13 19 7 10 1028.9 - 0.0
03/06:30pm 12.3 8.0 1.3 47 4.9 SSE 13 24 7 13 1028.7 - 0.0
03/06:00pm 13.0 7.9 1.0 44 5.3 SSE 17 22 9 12 1028.5 1027.6 0.0
03/05:30pm 13.6 8.0 0.9 42 5.6 SSE 20 32 11 17 1028.5 - 0.0
03/05:00pm 14.2 9.1 0.5 39 6.0 SE 17 24 9 13 1028.2 - 0.0
03/04:30pm 14.3 8.8 0.9 40 6.0 S 19 26 10 14 1028.1 - 0.0
03/04:00pm 14.2 8.8 1.2 41 5.8 SSE 19 30 10 16 1028.1 - 0.0
03/03:30pm 14.1 8.7 1.1 41 5.8 SSE 19 30 10 16 1028.1 - 0.0
03/03:00pm 14.0 8.6 1.3 42 5.7 SE 19 26 10 14 1028.1 1027.2 0.0
03/02:30pm 14.5 9.5 1.4 41 5.9 SE 17 32 9 17 1028.5 - 0.0
03/02:00pm 13.3 7.7 1.3 44 5.3 SSE 20 32 11 17 1029.0 - 0.0
03/01:30pm 13.3 8.0 1.6 45 5.2 SSE 19 28 10 15 1029.5 - 0.0
03/01:00pm 13.1 7.3 2.1 47 5.0 E 22 30 12 16 1029.8 - 0.0
03/12:30pm 12.2 6.8 1.5 48 4.7 SSE 19 30 10 16 1030.2 - 0.0
03/12:00pm 11.4 6.0 1.4 50 4.4 SE 19 30 10 16 1030.8 1029.9 0.0
03/11:30am 11.2 5.7 2.0 53 4.1 SE 20 30 11 16 1031.1 - 0.0
03/11:00am 10.6 4.7 1.7 54 3.9 SE 22 33 12 18 1031.4 - 0.0
03/10:30am 9.8 3.9 1.9 58 3.5 SE 22 30 12 16 1031.5 - 0.0
03/10:00am 9.6 4.2 2.5 61 3.1 SE 20 30 11 16 1031.5 - 0.0
03/09:30am 8.1 2.4 2.8 69 2.3 SE 22 32 12 17 1031.1 - 0.0
03/09:00am 7.3 2.2 2.8 73 1.9 SE 19 30 10 16 1031.0 1030.1 0.0
03/08:30am 6.4 -0.1 2.7 77 1.6 SE 26 32 14 17 1030.7 - 0.0
03/08:00am 5.9 0.5 2.5 79 1.5 SE 20 28 11 15 1030.3 - 0.0
03/07:30am 5.8 0.4 2.3 78 1.5 SE 20 28 11 15 1029.9 - 0.0
03/07:00am 5.7 0.4 1.6 75 1.7 SSE 19 26 10 14 1029.7 - 0.0
03/06:30am 6.0 0.0 1.2 71 2.0 SSE 22 30 12 16 1029.3 - 0.0
03/06:00am 7.1 0.6 0.1 61 2.8 SSE 24 33 13 18 1028.8 1027.9 0.0
03/05:30am 7.8 1.3 0.1 58 3.2 SSE 24 33 13 18 1028.7 - 0.0
03/05:00am 7.9 2.3 0.2 58 3.2 SSE 19 30 10 16 1028.7 - 0.0
03/04:30am 7.9 2.7 0.2 58 3.2 SE 17 28 9 15 1028.8 - 0.0
03/04:00am 7.9 2.7 0.4 59 3.1 SSE 17 24 9 13 1028.8 - 0.0
03/03:30am 8.2 3.5 0.7 59 3.1 SSE 15 24 8 13 1028.9 - 0.0
03/03:00am 8.3 4.4 1.0 60 3.1 SE 11 20 6 11 1029.0 1028.2 0.0
03/02:30am 8.8 3.4 1.0 58 3.3 S 19 28 10 15 1029.0 - 0.0
03/02:00am 9.6 4.2 1.0 55 3.7 S 19 30 10 16 1029.2 - 0.0
03/01:30am 9.6 4.0 1.0 55 3.7 S 20 26 11 14 1029.2 - 0.0
03/01:00am 9.6 4.0 1.5 57 3.5 S 20 28 11 15 1029.3 - 0.0
03/12:30am 9.8 4.3 1.9 58 3.5 S 20 28 11 15 1029.3 - 0.0
03/12:00am 9.8 4.6 2.2 59 3.3 S 19 30 10 16 1029.3 1028.4 0.0
 
Date/Time
CST
Temp
°C
App
Temp
°C
Dew
Point
Rel
Hum
%
Delta-T
°C
Wind Press
QNH
hPa
Press
MSL
hPa
Rain
since 9 am
mm
Dir
 
Spd
km/h
Gust
km/h
Spd
kts
Gust
kts
02/11:30pm 9.9 4.6 2.0 58 3.5 S 19 32 10 17 1029.4 - 0.0
02/11:00pm 9.9 5.0 2.3 59 3.4 S 17 24 9 13 1029.3 - 0.0
02/10:30pm 10.3 5.1 2.4 58 3.5 S 19 28 10 15 1029.2 - 0.0
02/10:00pm 10.4 4.6 2.3 57 3.6 S 22 30 12 16 1029.3 - 0.0
02/09:30pm 10.7 5.2 2.0 55 3.8 S 20 35 11 19 1029.0 - 0.0
02/09:00pm 11.1 5.7 2.4 55 3.9 S 20 28 11 15 1028.7 1027.8 0.0
02/08:30pm 11.2 6.0 2.5 55 3.9 S 19 26 10 14 1028.4 - 0.0
02/08:00pm 11.4 6.2 2.4 54 4.0 S 19 24 10 13 1028.0 - 0.0
02/07:30pm 11.5 6.0 2.0 52 4.2 S 20 28 11 15 1027.4 - 0.0
02/07:00pm 11.9 6.6 2.1 51 4.4 S 19 28 10 15 1027.2 - 0.0
02/06:30pm 12.5 7.0 2.1 49 4.7 S 20 24 11 13 1026.9 - 0.0
02/06:00pm 13.3 7.8 1.9 46 5.1 S 20 28 11 15 1026.5 1025.5 0.0
02/05:30pm 14.3 8.8 1.9 43 5.6 S 20 26 11 14 1025.9 - 0.0
02/05:00pm 15.0 9.8 2.5 43 5.8 S 19 26 10 14 1025.6 - 0.0
02/04:30pm 15.3 10.2 2.8 43 5.8 S 19 24 10 13 1025.5 - 0.0
02/04:00pm 15.7 10.4 3.2 43 5.9 S 20 30 11 16 1025.2 - 0.0
02/03:30pm 15.7 10.1 3.5 44 5.8 S 22 32 12 17 1025.1 - 0.0
02/03:00pm 15.8 10.2 3.6 44 5.8 S 22 32 12 17 1025.1 1024.1 0.0
02/02:30pm 16.0 10.5 4.1 45 5.8 S 22 32 12 17 1025.0 - 0.0
02/02:00pm 15.5 10.2 4.8 49 5.2 S 22 32 12 17 1025.1 - 0.0
02/01:30pm 14.6 9.7 4.9 52 4.7 S 20 30 11 16 1025.3 - 0.0
02/01:00pm 14.3 9.4 4.9 53 4.6 S 20 30 11 16 1025.5 - 0.0
02/12:30pm 14.4 9.7 5.2 54 4.5 S 19 28 10 15 1025.7 - 0.0
02/12:00pm 13.2 8.2 4.6 56 4.1 S 20 30 11 16 1025.8 1024.9 0.0
02/11:30am 13.3 9.1 5.7 60 3.7 S 17 32 9 17 1025.8 - 0.0
02/11:00am 12.7 7.9 5.8 63 3.4 S 20 30 11 16 1025.8 - 0.0
02/10:30am 11.3 6.2 5.8 69 2.7 S 22 32 12 17 1025.8 - 0.0
02/10:00am 10.4 5.7 6.2 75 2.0 SSE 20 28 11 15 1025.7 - 0.0
02/09:30am 10.2 5.4 7.3 82 1.4 SSE 22 28 12 15 1025.5 - 0.0
02/09:00am 10.3 6.4 7.2 81 1.5 S 17 28 9 15 1025.1 1024.1 0.0
02/08:30am 10.0 5.8 7.3 83 1.3 S 19 26 10 14 1024.8 - 0.0
02/08:00am 10.0 5.6 7.3 83 1.3 S 20 28 11 15 1024.3 - 0.0
02/07:30am 10.2 6.0 7.4 83 1.4 S 19 33 10 18 1023.7 - 0.0
02/07:00am 10.9 6.7 8.1 83 1.4 S 20 32 11 17 1023.3 - 0.0
02/06:30am 11.1 7.5 8.3 83 1.4 SSW 17 22 9 12 1022.7 - 0.0
02/06:00am 11.8 8.3 8.8 82 1.5 S 17 30 9 16 1022.2 1021.2 0.0
02/05:30am 12.0 9.3 8.8 81 1.7 S 13 19 7 10 1021.9 - 0.0
02/05:00am 12.0 10.0 8.8 81 1.7 S 9 30 5 16 1021.6 - 0.0
02/04:30am 12.3 9.3 9.1 81 1.7 SSW 15 20 8 11 1021.4 - 0.0
02/04:00am 12.5 8.1 9.1 80 1.8 SSW 22 33 12 18 1021.4 - 0.0
02/03:30am 13.1 9.8 9.5 79 1.9 S 17 28 9 15 1021.3 - 0.0
02/03:00am 13.5 10.2 9.6 77 2.1 S 17 30 9 16 1021.2 1020.2 0.0
02/02:30am 14.1 9.9 9.7 75 2.4 SSW 22 33 12 18 1021.2 - 0.0
02/02:00am 15.0 12.4 9.4 69 3.0 S 13 30 7 16 1021.2 - 0.0
02/01:30am 15.6 11.4 8.4 62 3.8 SSW 20 32 11 17 1020.9 - 0.0
02/01:00am 16.1 11.0 7.6 57 4.4 SSW 24 37 13 20 1020.6 - 0.0
02/12:30am 17.1 12.6 6.0 48 5.6 S 19 24 10 13 1020.5 - 0.0
02/12:00am 17.7 12.8 5.0 43 6.3 SSW 20 30 11 16 1020.3 1019.2 0.0
 
Date/Time
CST
Temp
°C
App
Temp
°C
Dew
Point
Rel
Hum
%
Delta-T
°C
Wind Press
QNH
hPa
Press
MSL
hPa
Rain
since 9 am
mm
Dir
 
Spd
km/h
Gust
km/h
Spd
kts
Gust
kts
01/11:30pm 18.2 11.6 4.0 39 7.0 SSW 28 41 15 22 1019.9 - 0.0
01/11:00pm 19.1 13.4 0.7 29 8.5 SSW 20 32 11 17 1019.5 - 0.0
01/10:30pm 19.1 13.1 -1.9 24 9.2 SW 20 28 11 15 1019.1 - 0.0
01/10:00pm 16.1 13.3 -6.8 20 8.8 CALM 0 7 0 4 1018.6 - 0.0
01/09:30pm 15.4 11.7 -4.5 25 8.0 W 6 7 3 4 1018.3 - 0.0
01/09:00pm 15.8 13.1 -5.8 22 8.4 CALM 0 6 0 3 1018.1 1017.1 0.0
01/08:30pm 17.3 12.7 -7.9 17 9.6 NW 9 11 5 6 1017.9 - 0.0
01/08:00pm 18.4 14.1 -9.5 14 10.4 W 7 11 4 6 1017.6 - 0.0
01/07:30pm 19.4 14.4 -7.9 15 10.6 WSW 11 13 6 7 1017.2 - 0.0

Other Formats:

Comma delimited format used in spreadsheet applications
http://www.bom.gov.au/fwo/IDS60801/IDS60801.94474.axf

JavaScript Object Notation format (JSON) in row-major order
http://www.bom.gov.au/fwo/IDS60801/IDS60801.94474.json